Aérodrome :
LOGIN :

S'inscrire | Disclaimer

   EN    FR    IT 

 










Légende :    VFR   VFR Marginal   IFR   IFR Intensif   IFR Très Intensif
Visi : 
Plafond : 
>= 8 km
>= 3000ft
5 à 8 km
1000 à 3000 ft
1500m à 5 km
500 à 1000 ft
800 à 1500m
200 à 500 ft
< 800m
< 200 ft
Symboles :   Orages  Brouillard  Fortes neiges  Fortes précipitations  Vent > 20 kt
SIGMETs :   Divers  Orages  Givrage  Turbulence  Onde Orograph.  Cendres Volcan.







- Altitude de l'aérodrome : 72 ft
- Code IATA : UDE


EHVK - Volkel Airbase

DERNIER METAR :
  • 191455Z AUTO VRB07KT 9999 OVC320 27/11 Q1017 BLU

METARs EXPIRÉS :
  • 191412Z AUTO 28006KT 240V050 9999 BKN360 28/11 Q1017 BLU
  • 191355Z AUTO 33006KT 290V020 9999 SCT071 BKN076 BKN350 28/11 Q1017 BLU VRB03KT CAVOK
  • 191325Z AUTO VRB04KT 9999 SCT059 OVC068 27/11 Q1017 BLU VRB03KT CAVOK
  • 191255Z AUTO VRB02KT 9999 FEW058 26/11 Q1017 BLU VRB03KT CAVOK
  • 191225Z AUTO VRB04KT 9999 OVC054 26/11 Q1017 BLU VRB03KT CAVOK

TAF TAF EHVK
Valide du 19 à 09h jusqu'au 19 à 21h UTC


190833Z 1909/1921 VRB03KT CAVOK
BECMG 1915/1918 33006KT
Pas de NOTAMs connus pour ce terrain.



MET'MAP, la Météo Aéronautique d'un coup d'oeil ! - Copyright ORBIFLY Décembre 2007 - Disclaimer

ORBIFLY MET'MAP TEAM :

Programmation & Développement : Alexandra Zaïnal
Conception & Développement : Baudouin d'Aumeries
Co-Programmation & Développement : Marc-Olivier Méhu
Soutien technique & logistique : Manuel Goepfert

Contact : metmap@orbifly.com




SOURCES & CREDITS :

   NOAA